Time;durP1;ratioP1;P1;durP2;ratioP2;P2;SDS_P1;SDS_P2;PMS_P1;PMS_P2;Temp;Humidity;BMP_temperature;BMP_pressure;BME280_temperature;BME280_humidity;BME280_pressure;Samples;Min_cycle;Max_cycle;Signal;HPM_P1;HPM_P2
2022/08/20 00:01:03;;;;;;;14.95;11.57;;;19.70;99.90;;;;;;4977826;28;20171;-57
2022/08/20 00:03:36;;;;;;;17.05;11.40;;;19.60;99.90;;;;;;4977796;28;20043;-58
2022/08/20 00:06:10;;;;;;;17.02;11.73;;;19.70;99.90;;;;;;4977511;28;20499;-58
2022/08/20 00:08:37;;;;;;;19.45;12.10;;;19.70;99.90;;;;;;4977610;28;20390;-57
2022/08/20 00:11:09;;;;;;;18.48;12.07;;;19.70;99.90;;;;;;4960802;28;20542;-57
2022/08/20 00:13:46;;;;;;;15.45;12.05;;;19.60;99.90;;;;;;4977591;28;20045;-58
2022/08/20 00:16:14;;;;;;;18.20;11.75;;;19.60;99.90;;;;;;4960273;28;20508;-57
2022/08/20 00:18:41;;;;;;;15.85;11.18;;;19.20;99.90;;;;;;4977365;28;20042;-57
2022/08/20 00:21:09;;;;;;;16.55;11.27;;;19.50;99.90;;;;;;4977162;28;20209;-58
2022/08/20 00:23:37;;;;;;;19.05;12.40;;;19.50;99.90;;;;;;4977317;28;20054;-58
2022/08/20 00:26:04;;;;;;;18.00;11.38;;;19.40;99.90;;;;;;4977331;28;20043;-57
2022/08/20 00:28:30;;;;;;;21.85;12.90;;;19.40;99.90;;;;;;4977296;28;20046;-57
2022/08/20 00:30:57;;;;;;;19.05;12.40;;;19.40;99.90;;;;;;4960213;28;20034;-57
2022/08/20 00:33:24;;;;;;;21.73;13.13;;;19.30;99.90;;;;;;4977109;28;20043;-57
2022/08/20 00:35:53;;;;;;;18.67;12.48;;;20.60;99.90;;;;;;4976978;28;20050;-58
2022/08/20 00:38:21;;;;;;;18.27;12.63;;;19.30;99.90;;;;;;4977175;28;20043;-57
2022/08/20 00:40:59;;;;;;;21.90;13.00;;;19.30;99.90;;;;;;4977068;28;20035;-57
2022/08/20 00:43:25;;;;;;;15.93;12.25;;;19.20;99.90;;;;;;4977026;28;20050;-57
2022/08/20 00:45:54;;;;;;;16.92;12.23;;;19.20;99.90;;;;;;4976757;28;20046;-57
2022/08/20 00:48:30;;;;;;;18.65;12.45;;;19.20;99.90;;;;;;4960429;28;20046;-57
2022/08/20 00:51:04;;;;;;;20.10;12.48;;;19.20;99.90;;;;;;4976783;28;20513;-57
2022/08/20 00:53:31;;;;;;;17.17;12.63;;;17.50;99.90;;;;;;4976719;28;20046;-58
2022/08/20 00:55:57;;;;;;;20.17;12.57;;;19.10;99.90;;;;;;4976853;28;20121;-57
2022/08/20 00:58:23;;;;;;;19.77;12.77;;;19.20;99.90;;;;;;4976361;28;20480;-57
2022/08/20 01:00:50;;;;;;;16.42;11.82;;;19.20;99.90;;;;;;4976488;28;20503;-57
2022/08/20 01:03:19;;;;;;;19.90;12.55;;;19.20;99.90;;;;;;4959202;28;20051;-57
2022/08/20 01:05:47;;;;;;;19.27;13.00;;;19.10;99.90;;;;;;4975597;28;20043;-57
2022/08/20 01:08:15;;;;;;;15.75;12.13;;;19.10;99.90;;;;;;4976501;28;20038;-57
2022/08/20 01:10:47;;;;;;;20.40;12.88;;;19.10;99.90;;;;;;4976461;28;20037;-57
2022/08/20 01:13:19;;;;;;;20.92;13.00;;;19.10;99.90;;;;;;4976296;28;20043;-57
2022/08/20 01:15:50;;;;;;;18.17;12.35;;;18.90;99.90;;;;;;4976568;28;20046;-57
2022/08/20 01:18:24;;;;;;;19.55;13.18;;;19.10;99.90;;;;;;4976560;28;20050;-57
2022/08/20 01:20:55;;;;;;;17.75;12.70;;;19.10;99.90;;;;;;4976104;28;20614;-57
2022/08/20 01:23:38;;;;;;;19.60;12.85;;;19.10;99.90;;;;;;4976284;28;20050;-57
2022/08/20 01:26:10;;;;;;;19.23;12.88;;;19.10;99.90;;;;;;4976350;28;20054;-57
2022/08/20 01:28:42;;;;;;;22.13;14.35;;;19.00;99.90;;;;;;4976315;28;20403;-57
2022/08/20 01:31:13;;;;;;;17.52;12.95;;;19.00;99.90;;;;;;4976196;28;20074;-57
2022/08/20 01:33:41;;;;;;;20.73;12.45;;;19.00;99.90;;;;;;4958488;28;20043;-57
2022/08/20 01:36:09;;;;;;;18.48;12.65;;;19.20;99.90;;;;;;4975913;28;20043;-57
2022/08/20 01:38:35;;;;;;;16.98;12.20;;;18.90;99.90;;;;;;4975890;28;20113;-58
2022/08/20 01:41:34;;;;;;;15.93;11.65;;;19.00;99.90;;;;;;4976061;28;20039;-58
2022/08/20 01:43:59;;;;;;;21.52;12.68;;;18.90;99.90;;;;;;4975794;28;20121;-57
2022/08/20 01:46:36;;;;;;;20.42;12.68;;;18.80;99.90;;;;;;4975773;28;20126;-57
2022/08/20 01:49:12;;;;;;;21.13;12.50;;;18.80;99.90;;;;;;4976168;28;20189;-57
2022/08/20 01:51:39;;;;;;;24.23;13.77;;;18.80;99.90;;;;;;4975987;28;20034;-58
2022/08/20 01:54:06;;;;;;;23.08;12.55;;;18.80;99.90;;;;;;4975761;28;20047;-57
2022/08/20 01:56:33;;;;;;;23.30;13.50;;;18.70;99.90;;;;;;4958529;28;20085;-57
2022/08/20 01:59:05;;;;;;;22.80;13.10;;;18.60;99.90;;;;;;4975489;28;20049;-57
2022/08/20 02:01:39;;;;;;;24.23;13.48;;;18.70;99.90;;;;;;4975704;28;20054;-57
2022/08/20 02:04:09;;;;;;;24.13;12.88;;;18.70;99.90;;;;;;4958424;28;20087;-57
2022/08/20 02:06:43;;;;;;;19.17;11.90;;;18.60;99.90;;;;;;4975500;28;20074;-57
2022/08/20 02:09:09;;;;;;;23.48;12.38;;;18.70;99.90;;;;;;4975322;28;20074;-58
2022/08/20 02:11:37;;;;;;;21.35;12.18;;;18.70;99.90;;;;;;4975750;28;20424;-58
2022/08/20 02:14:06;;;;;;;21.98;11.77;;;18.00;99.90;;;;;;4975329;28;20483;-57
2022/08/20 02:16:35;;;;;;;17.13;11.57;;;18.70;99.90;;;;;;4975354;28;20451;-57
2022/08/20 02:19:11;;;;;;;23.33;13.05;;;18.60;99.90;;;;;;4975323;28;20057;-57
2022/08/20 02:21:44;;;;;;;26.45;12.65;;;18.60;99.90;;;;;;4975025;28;20055;-57
2022/08/20 02:24:11;;;;;;;21.42;12.27;;;18.60;99.90;;;;;;4974965;28;20043;-57
2022/08/20 02:26:37;;;;;;;17.65;11.63;;;18.50;99.90;;;;;;4975231;28;20050;-57
2022/08/20 02:29:06;;;;;;;22.38;12.40;;;18.60;99.90;;;;;;4975002;28;20039;-57
2022/08/20 02:31:32;;;;;;;23.00;12.13;;;18.50;99.90;;;;;;4975137;28;20042;-57
2022/08/20 02:33:58;;;;;;;21.33;12.25;;;18.50;99.90;;;;;;4974962;28;20129;-57
2022/08/20 02:36:26;;;;;;;22.65;11.45;;;18.50;99.90;;;;;;4975058;28;20515;-57
2022/08/20 02:38:52;;;;;;;24.80;12.35;;;18.40;99.90;;;;;;4975061;28;20047;-57
2022/08/20 02:41:20;;;;;;;21.95;12.25;;;18.20;99.90;;;;;;4974978;28;20058;-57
2022/08/20 02:43:46;;;;;;;22.42;11.80;;;18.30;99.90;;;;;;4974895;28;20439;-57
2022/08/20 02:46:14;;;;;;;22.75;12.35;;;18.30;99.90;;;;;;4974806;28;20436;-57
2022/08/20 02:48:40;;;;;;;26.63;11.70;;;18.30;99.90;;;;;;4957466;28;20046;-57
2022/08/20 02:51:07;;;;;;;25.75;12.15;;;18.30;99.90;;;;;;4974525;28;20050;-57
2022/08/20 02:53:37;;;;;;;19.20;11.30;;;18.30;99.90;;;;;;4974898;28;20070;-57
2022/08/20 02:56:08;;;;;;;17.60;11.10;;;18.50;99.90;;;;;;4974762;28;20098;-57
2022/08/20 02:58:34;;;;;;;20.95;10.90;;;18.30;99.90;;;;;;4974670;28;20130;-57
2022/08/20 03:01:02;;;;;;;23.92;11.07;;;18.30;99.90;;;;;;4974545;28;20506;-57
2022/08/20 03:03:28;;;;;;;16.25;10.77;;;17.40;99.90;;;;;;4974524;28;20392;-57
2022/08/20 03:05:58;;;;;;;23.52;11.10;;;18.20;99.90;;;;;;4974647;28;20042;-57
2022/08/20 03:08:26;;;;;;;22.02;11.15;;;18.20;99.90;;;;;;4974661;28;20070;-57
2022/08/20 03:10:52;;;;;;;17.48;11.10;;;18.10;99.90;;;;;;4974435;28;20035;-57
2022/08/20 03:13:19;;;;;;;25.50;11.43;;;18.10;99.90;;;;;;4974567;28;20093;-57
2022/08/20 03:15:52;;;;;;;22.20;11.88;;;18.10;99.90;;;;;;4974420;28;20523;-58
2022/08/20 03:18:19;;;;;;;19.42;11.18;;;17.90;99.90;;;;;;4956902;28;20049;-57
2022/08/20 03:20:46;;;;;;;26.10;11.75;;;18.00;99.90;;;;;;4974042;28;20122;-57
2022/08/20 03:23:13;;;;;;;20.00;10.93;;;18.10;99.90;;;;;;4974518;28;20090;-57
2022/08/20 03:25:42;;;;;;;20.50;11.10;;;18.00;99.90;;;;;;4974513;28;20108;-57
2022/08/20 03:28:09;;;;;;;22.42;11.07;;;18.00;99.90;;;;;;4975616;28;20042;-57
2022/08/20 03:30:34;;;;;;;20.83;10.70;;;17.80;99.90;;;;;;4978258;28;20104;-57
2022/08/20 03:33:00;;;;;;;18.73;10.60;;;17.90;99.90;;;;;;4978318;28;20715;-57
2022/08/20 03:35:29;;;;;;;20.52;10.93;;;17.90;99.90;;;;;;4978373;28;20035;-57
2022/08/20 03:37:55;;;;;;;22.23;11.63;;;17.90;99.90;;;;;;4978157;28;20423;-57
2022/08/20 03:40:29;;;;;;;20.40;10.88;;;17.90;99.90;;;;;;4978025;28;20530;-58
2022/08/20 03:42:55;;;;;;;21.88;11.25;;;17.90;99.90;;;;;;4978222;28;20494;-57
2022/08/20 03:45:22;;;;;;;23.50;10.70;;;17.90;99.90;;;;;;4960609;28;20484;-57
2022/08/20 03:47:50;;;;;;;16.48;10.40;;;17.50;99.90;;;;;;4960602;28;20472;-57
2022/08/20 03:50:19;;;;;;;17.98;9.80;;;17.80;99.90;;;;;;4977976;28;20094;-57
2022/08/20 03:52:45;;;;;;;22.92;11.13;;;17.80;99.90;;;;;;4977602;28;20035;-57
2022/08/20 03:55:12;;;;;;;22.02;11.35;;;17.70;99.90;;;;;;4977710;28;20045;-57
2022/08/20 03:57:44;;;;;;;21.00;11.23;;;17.70;99.90;;;;;;4977567;28;20051;-57
2022/08/20 04:00:16;;;;;;;18.90;10.30;;;17.70;99.90;;;;;;4977756;28;20038;-58
2022/08/20 04:02:42;;;;;;;22.15;12.10;;;17.70;99.90;;;;;;4977546;28;20085;-58
2022/08/20 04:05:09;;;;;;;22.15;10.45;;;17.50;99.90;;;;;;4977670;28;20082;-58
2022/08/20 04:07:36;;;;;;;23.55;11.30;;;17.60;99.90;;;;;;4978168;28;20039;-58
2022/08/20 04:10:05;;;;;;;18.30;10.63;;;17.60;99.90;;;;;;4977598;28;20049;-57
2022/08/20 04:12:30;;;;;;;16.23;10.05;;;17.50;99.90;;;;;;4977385;28;20122;-57
2022/08/20 04:14:57;;;;;;;21.08;10.57;;;17.50;99.90;;;;;;4977568;28;20123;-57
2022/08/20 04:17:23;;;;;;;22.50;10.13;;;17.40;99.90;;;;;;4977620;28;20046;-57
2022/08/20 04:19:49;;;;;;;18.33;10.85;;;17.40;99.90;;;;;;4977270;28;20512;-57
2022/08/20 04:22:16;;;;;;;18.50;10.73;;;17.40;99.90;;;;;;4975126;28;20051;-57
2022/08/20 04:24:42;;;;;;;19.13;9.90;;;17.40;99.90;;;;;;4977323;28;20495;-57
2022/08/20 04:27:09;;;;;;;17.33;9.85;;;18.30;99.90;;;;;;4976883;28;20037;-57
2022/08/20 04:29:35;;;;;;;24.45;10.80;;;17.30;99.90;;;;;;4977448;28;20093;-57
2022/08/20 04:32:04;;;;;;;23.27;10.63;;;17.30;99.90;;;;;;4977438;28;20039;-57
2022/08/20 04:34:30;;;;;;;23.60;11.20;;;18.10;99.90;;;;;;4977035;28;20039;-57
2022/08/20 04:36:59;;;;;;;24.08;10.90;;;17.30;99.90;;;;;;4977032;28;20439;-57
2022/08/20 04:39:25;;;;;;;24.85;11.95;;;17.30;99.90;;;;;;4974744;28;20058;-57
2022/08/20 04:41:51;;;;;;;19.85;10.63;;;17.20;99.90;;;;;;4977072;28;20050;-56
2022/08/20 04:44:18;;;;;;;22.63;11.40;;;17.30;99.90;;;;;;4976026;28;20057;-57
2022/08/20 04:46:43;;;;;;;23.63;10.50;;;17.20;99.90;;;;;;4976845;28;20065;-57
2022/08/20 04:49:09;;;;;;;20.80;10.50;;;17.30;99.90;;;;;;4959465;28;20478;-57
2022/08/20 04:51:34;;;;;;;18.80;9.55;;;17.30;99.90;;;;;;4977111;28;20043;-56
2022/08/20 04:54:02;;;;;;;22.02;11.30;;;17.40;99.90;;;;;;4976696;28;20125;-57
2022/08/20 04:56:36;;;;;;;25.15;9.98;;;17.60;99.90;;;;;;4976579;28;20509;-57
2022/08/20 04:59:02;;;;;;;23.05;10.40;;;17.40;99.90;;;;;;4960140;28;20045;-57
2022/08/20 05:01:28;;;;;;;18.02;10.13;;;17.40;99.90;;;;;;4976486;28;20133;-57
2022/08/20 05:03:55;;;;;;;17.52;9.63;;;17.40;99.90;;;;;;4976861;28;20078;-57
2022/08/20 05:06:25;;;;;;;20.98;10.38;;;17.40;99.90;;;;;;4976446;28;20053;-57
2022/08/20 05:08:52;;;;;;;21.75;9.52;;;17.40;99.90;;;;;;4976714;28;20078;-57
2022/08/20 05:11:20;;;;;;;14.45;9.10;;;17.30;99.90;;;;;;4976567;28;20380;-57
2022/08/20 05:13:46;;;;;;;23.65;9.45;;;17.30;99.90;;;;;;4976533;28;20078;-57
2022/08/20 05:16:15;;;;;;;20.10;8.80;;;17.30;99.90;;;;;;4976346;28;20034;-57
2022/08/20 05:18:42;;;;;;;18.45;9.02;;;17.20;99.90;;;;;;4976228;28;20043;-57
2022/08/20 05:21:07;;;;;;;14.27;8.10;;;17.30;99.90;;;;;;4975965;28;20051;-57
2022/08/20 05:23:35;;;;;;;20.77;8.50;;;17.20;99.90;;;;;;4976434;28;20110;-57
2022/08/20 05:26:06;;;;;;;17.02;8.02;;;17.20;99.90;;;;;;4959556;28;20050;-57
2022/08/20 05:28:34;;;;;;;21.33;7.85;;;17.20;99.90;;;;;;4976187;28;20039;-57
2022/08/20 05:31:00;;;;;;;23.50;8.38;;;17.20;99.90;;;;;;4975876;28;20471;-56
2022/08/20 05:33:28;;;;;;;18.13;8.68;;;17.10;99.90;;;;;;4975835;28;20509;-57
2022/08/20 05:35:55;;;;;;;14.38;7.65;;;17.10;99.90;;;;;;4975773;28;20070;-57
2022/08/20 05:38:27;;;;;;;17.08;7.75;;;17.10;99.90;;;;;;4976234;28;20038;-59
2022/08/20 05:40:53;;;;;;;17.85;8.10;;;17.00;99.90;;;;;;4975739;28;20046;-57
2022/08/20 05:43:21;;;;;;;15.10;7.35;;;17.10;99.90;;;;;;4975918;28;20046;-59
2022/08/20 05:45:51;;;;;;;16.45;7.28;;;16.60;99.90;;;;;;4975699;28;20046;-57
2022/08/20 05:48:20;;;;;;;16.90;7.55;;;17.40;99.90;;;;;;4975555;28;20046;-57
2022/08/20 05:50:48;;;;;;;14.57;6.85;;;17.20;99.90;;;;;;4975413;28;20047;-57
2022/08/20 05:53:15;;;;;;;19.10;7.13;;;17.10;99.90;;;;;;4975552;28;20043;-57
2022/08/20 05:55:41;;;;;;;17.52;7.47;;;17.30;99.90;;;;;;4975526;28;20082;-57
2022/08/20 05:58:13;;;;;;;15.70;6.60;;;17.40;99.90;;;;;;4976060;28;20046;-57
2022/08/20 06:00:39;;;;;;;16.95;6.97;;;17.40;99.90;;;;;;4975443;28;20042;-57
2022/08/20 06:05:49;;;;;;;17.33;6.43;;;18.10;99.90;;;;;;4975445;28;20053;-57
2022/08/20 06:08:15;;;;;;;18.17;6.07;;;17.40;99.90;;;;;;4958070;28;20046;-57
2022/08/20 06:10:42;;;;;;;12.55;6.30;;;17.40;99.90;;;;;;4975532;28;20439;-57
2022/08/20 06:13:10;;;;;;;15.13;6.07;;;17.50;99.90;;;;;;4975176;28;20130;-57
2022/08/20 06:15:36;;;;;;;15.27;6.28;;;17.50;99.90;;;;;;4975108;28;20062;-57
2022/08/20 06:18:06;;;;;;;17.80;6.30;;;17.50;99.90;;;;;;4975273;28;20046;-57
2022/08/20 06:20:34;;;;;;;15.80;5.50;;;17.10;99.90;;;;;;4975007;28;20049;-58
2022/08/20 06:23:04;;;;;;;13.38;5.60;;;17.60;99.90;;;;;;4974873;28;20059;-58
2022/08/20 06:25:31;;;;;;;12.30;5.03;;;18.20;99.90;;;;;;4974827;28;20152;-58
2022/08/20 06:27:56;;;;;;;10.80;5.28;;;18.00;99.90;;;;;;4975178;28;20426;-57
2022/08/20 06:30:25;;;;;;;10.60;4.60;;;18.90;99.90;;;;;;4975092;28;20041;-58
2022/08/20 06:32:51;;;;;;;16.58;4.80;;;19.10;99.90;;;;;;4975053;28;20035;-58
2022/08/20 06:35:17;;;;;;;13.20;5.10;;;19.20;99.90;;;;;;4974873;28;20047;-57
2022/08/20 06:37:46;;;;;;;15.25;4.45;;;20.20;99.90;;;;;;4974581;28;20550;-57
2022/08/20 06:40:18;;;;;;;14.32;3.92;;;20.80;99.90;;;;;;4957484;28;20043;-57
2022/08/20 06:42:46;;;;;;;11.15;4.47;;;21.20;99.90;;;;;;4974847;28;20050;-57
2022/08/20 06:45:15;;;;;;;14.85;3.80;;;21.20;99.90;;;;;;4974453;28;20039;-58
2022/08/20 06:47:43;;;;;;;11.38;3.70;;;21.00;99.90;;;;;;4974742;28;20045;-58
2022/08/20 06:50:12;;;;;;;14.30;4.03;;;20.80;99.90;;;;;;4974715;28;20066;-58
2022/08/20 06:52:40;;;;;;;13.13;4.07;;;20.60;99.90;;;;;;4974499;28;20149;-58
2022/08/20 06:55:08;;;;;;;15.23;3.80;;;20.00;99.90;;;;;;4974448;28;20043;-58
2022/08/20 06:57:35;;;;;;;10.23;3.60;;;20.40;99.90;;;;;;4974774;28;20057;-58
2022/08/20 07:00:01;;;;;;;12.68;3.50;;;20.30;99.90;;;;;;4974591;28;20121;-57
2022/08/20 07:02:26;;;;;;;14.00;4.15;;;20.40;99.90;;;;;;4973946;28;20066;-58
2022/08/20 07:04:54;;;;;;;14.45;3.92;;;21.60;99.90;;;;;;4969160;28;20530;-58
2022/08/20 07:07:20;;;;;;;9.88;3.20;;;21.70;99.90;;;;;;4944750;28;20382;-58
2022/08/20 07:09:45;;;;;;;12.63;3.50;;;22.70;99.90;;;;;;4973269;28;20252;-58
2022/08/20 07:12:12;;;;;;;9.65;3.00;;;23.80;99.90;;;;;;4973203;28;20035;-58
2022/08/20 07:14:39;;;;;;;11.00;3.30;;;23.60;99.90;;;;;;4971931;28;20141;-57
2022/08/20 07:17:06;;;;;;;10.77;2.95;;;23.60;99.90;;;;;;4954288;29;20138;-58
2022/08/20 07:19:32;;;;;;;13.25;3.17;;;24.30;99.90;;;;;;4968540;28;20534;-58
2022/08/20 07:21:58;;;;;;;7.63;2.45;;;24.80;99.90;;;;;;4972808;28;20051;-58
2022/08/20 07:24:24;;;;;;;8.98;2.47;;;25.50;99.90;;;;;;4973335;28;20046;-58
2022/08/20 07:26:51;;;;;;;7.97;2.75;;;25.50;99.90;;;;;;4973110;28;20059;-58
2022/08/20 07:29:17;;;;;;;11.20;2.83;;;24.60;99.90;;;;;;4973361;28;20379;-58
2022/08/20 07:34:30;;;;;;;11.13;2.97;;;22.60;99.90;;;;;;4953472;29;20083;-58
2022/08/20 07:36:59;;;;;;;12.38;3.28;;;23.30;99.90;;;;;;4960719;28;20051;-58
2022/08/20 07:39:25;;;;;;;13.55;2.88;;;23.00;99.90;;;;;;4972095;28;20078;-58
2022/08/20 07:42:02;;;;;;;13.15;3.15;;;22.70;99.90;;;;;;4973077;28;20051;-57
2022/08/20 07:44:29;;;;;;;10.88;2.72;;;22.90;99.90;;;;;;4972968;28;20058;-58
2022/08/20 07:46:57;;;;;;;11.10;2.92;;;23.80;99.90;;;;;;4971814;28;20121;-58
2022/08/20 07:49:22;;;;;;;9.18;3.10;;;23.60;99.90;;;;;;4972813;28;20126;-57
2022/08/20 07:51:48;;;;;;;13.63;2.80;;;24.10;99.90;;;;;;4973101;28;20154;-58
2022/08/20 07:54:14;;;;;;;10.52;2.45;;;24.40;99.90;;;;;;4973236;28;20038;-58
2022/08/20 07:56:41;;;;;;;7.97;2.50;;;24.90;99.90;;;;;;4972794;28;20083;-58
2022/08/20 07:59:07;;;;;;;9.52;2.60;;;25.40;99.90;;;;;;4973185;28;20487;-58
2022/08/20 08:01:33;;;;;;;10.95;2.65;;;26.20;99.90;;;;;;4972592;28;20054;-58
2022/08/20 08:03:59;;;;;;;9.15;2.45;;;25.90;99.90;;;;;;4973025;28;20038;-58
2022/08/20 08:06:27;;;;;;;10.55;2.58;;;25.70;99.90;;;;;;4972664;28;20490;-58
2022/08/20 08:09:00;;;;;;;10.13;2.65;;;25.50;99.90;;;;;;4973146;28;20043;-57
2022/08/20 08:11:26;;;;;;;12.20;2.20;;;24.80;99.90;;;;;;4972389;28;20400;-58
2022/08/20 08:13:52;;;;;;;10.68;2.40;;;24.40;99.90;;;;;;4973855;28;20096;-57
2022/08/20 08:16:18;;;;;;;7.57;2.15;;;24.20;99.90;;;;;;4976698;28;20105;-58
2022/08/20 08:18:55;;;;;;;9.02;2.15;;;23.90;99.90;;;;;;4976479;28;20054;-57
2022/08/20 08:21:21;;;;;;;9.85;2.63;;;23.70;99.90;;;;;;4974115;28;20070;-57
2022/08/20 08:23:46;;;;;;;8.27;2.67;;;23.50;99.90;;;;;;4976214;28;20081;-57
2022/08/20 08:26:14;;;;;;;10.50;3.33;;;23.50;99.90;;;;;;4976132;28;20086;-58
2022/08/20 08:28:43;;;;;;;10.13;2.08;;;23.80;99.90;;;;;;4975215;28;20105;-58
2022/08/20 08:31:14;;;;;;;10.77;2.30;;;24.80;99.90;;;;;;4976387;28;20039;-59
2022/08/20 08:33:40;;;;;;;10.27;2.65;;;24.70;99.90;;;;;;4975921;28;20061;-59
2022/08/20 08:36:09;;;;;;;9.07;2.22;;;24.80;99.90;;;;;;4975380;28;20094;-59
2022/08/20 08:38:37;;;;;;;8.90;2.40;;;24.70;99.90;;;;;;4975488;28;20454;-59
2022/08/20 08:41:28;;;;;;;10.23;2.35;;;24.90;99.90;;;;;;4976535;28;20122;-59
2022/08/20 08:44:03;;;;;;;7.85;2.10;;;25.10;99.10;;;;;;4976568;28;20519;-59
2022/08/20 08:46:40;;;;;;;6.35;1.92;;;25.00;99.90;;;;;;4976990;28;20076;-59
2022/08/20 08:49:11;;;;;;;6.25;2.13;;;25.00;97.00;;;;;;4959417;28;20114;-59
2022/08/20 08:51:47;;;;;;;7.85;2.08;;;25.20;97.60;;;;;;4975308;28;20038;-59
2022/08/20 08:54:19;;;;;;;6.10;1.67;;;25.20;92.90;;;;;;4975596;28;20054;-59
2022/08/20 08:56:45;;;;;;;7.53;1.85;;;25.20;94.60;;;;;;4959357;28;20053;-59
2022/08/20 08:59:11;;;;;;;5.05;1.90;;;25.20;93.90;;;;;;4976579;28;20043;-59
2022/08/20 09:01:45;;;;;;;6.57;1.80;;;24.80;93.70;;;;;;4977107;28;20049;-58
2022/08/20 09:04:15;;;;;;;6.65;2.05;;;24.70;94.40;;;;;;4976410;28;20057;-57
2022/08/20 09:06:42;;;;;;;4.82;1.90;;;24.80;95.50;;;;;;4976532;28;20126;-57
2022/08/20 09:09:26;;;;;;;7.30;2.10;;;24.80;95.30;;;;;;4976448;28;20035;-57
2022/08/20 09:11:54;;;;;;;5.60;1.85;;;25.00;97.20;;;;;;4976387;28;20483;-58
2022/08/20 09:14:23;;;;;;;7.57;1.92;;;25.00;94.90;;;;;;4977133;28;20492;-58
2022/08/20 09:16:49;;;;;;;5.93;1.77;;;25.20;94.30;;;;;;4976319;28;20432;-57
2022/08/20 09:19:15;;;;;;;10.00;2.17;;;25.00;93.20;;;;;;4976637;28;20047;-57
2022/08/20 09:21:42;;;;;;;6.43;1.80;;;25.00;92.20;;;;;;4976150;28;20063;-58
2022/08/20 09:24:08;;;;;;;5.32;1.90;;;25.10;93.20;;;;;;4976324;28;20051;-57
2022/08/20 09:26:37;;;;;;;8.57;1.85;;;25.20;93.00;;;;;;4975328;28;20470;-57
2022/08/20 09:29:03;;;;;;;7.88;1.67;;;25.50;94.00;;;;;;4975510;28;20039;-57
2022/08/20 09:31:29;;;;;;;8.40;2.22;;;25.40;91.40;;;;;;4975562;28;20049;-57
2022/08/20 09:33:56;;;;;;;7.68;1.90;;;25.20;90.30;;;;;;4975948;28;20042;-57
2022/08/20 09:36:22;;;;;;;11.25;2.00;;;25.30;95.60;;;;;;4973852;28;20500;-58
2022/08/20 09:38:48;;;;;;;5.28;1.75;;;25.40;91.90;;;;;;4975116;28;20166;-57
2022/08/20 09:41:14;;;;;;;8.32;2.30;;;25.60;92.10;;;;;;4975922;28;20055;-58
2022/08/20 09:43:40;;;;;;;8.05;2.35;;;25.70;90.90;;;;;;4975447;28;20434;-59
2022/08/20 09:46:05;;;;;;;8.88;1.90;;;25.80;91.00;;;;;;4975750;28;20046;-60
2022/08/20 09:48:31;;;;;;;6.20;1.90;;;25.90;90.00;;;;;;4975750;28;20503;-58
2022/08/20 09:50:57;;;;;;;4.47;1.70;;;26.10;90.30;;;;;;4975827;28;20042;-57
2022/08/20 09:53:22;;;;;;;7.00;1.70;;;26.20;90.20;;;;;;4975756;28;20047;-58
2022/08/20 09:55:52;;;;;;;6.10;1.90;;;26.30;88.40;;;;;;4975563;28;20406;-57
2022/08/20 09:58:36;;;;;;;7.47;2.10;;;26.40;86.30;;;;;;4975404;28;20136;-58
2022/08/20 10:01:09;;;;;;;7.03;1.88;;;26.50;85.10;;;;;;4975117;28;20057;-60
2022/08/20 10:03:35;;;;;;;9.00;2.13;;;26.40;84.00;;;;;;4957796;28;20057;-59
2022/08/20 10:06:04;;;;;;;8.15;2.00;;;26.50;83.90;;;;;;4974957;28;20047;-59
2022/08/20 10:08:30;;;;;;;5.55;1.70;;;26.50;82.00;;;;;;4975231;28;20042;-60
2022/08/20 10:10:58;;;;;;;5.53;1.58;;;26.50;82.90;;;;;;4975047;28;20043;-61
2022/08/20 10:13:23;;;;;;;8.15;1.70;;;26.60;76.70;;;;;;4975146;28;20129;-60
2022/08/20 10:15:49;;;;;;;10.32;1.90;;;26.50;74.30;;;;;;4973696;28;20125;-60
2022/08/20 10:18:15;;;;;;;6.78;1.75;;;26.60;70.80;;;;;;4974969;28;20043;-59
2022/08/20 10:20:41;;;;;;;3.58;1.40;;;26.50;68.50;;;;;;4975302;28;20086;-59
2022/08/20 10:23:07;;;;;;;4.70;1.60;;;26.60;67.40;;;;;;4974547;28;20496;-59
2022/08/20 10:25:32;;;;;;;5.18;1.60;;;26.90;70.30;;;;;;4974959;28;20049;-59
2022/08/20 10:27:58;;;;;;;5.88;1.77;;;26.60;64.70;;;;;;4974466;28;20038;-60
2022/08/20 10:30:25;;;;;;;6.43;1.83;;;26.70;67.10;;;;;;4973972;28;20487;-60
2022/08/20 10:32:50;;;;;;;7.38;1.80;;;26.60;69.80;;;;;;4974019;28;20122;-61
2022/08/20 10:35:16;;;;;;;6.68;1.98;;;26.50;76.50;;;;;;4974810;28;20122;-61
2022/08/20 10:37:43;;;;;;;8.88;2.10;;;26.70;69.70;;;;;;4974447;28;20034;-60
2022/08/20 10:40:10;;;;;;;6.05;1.80;;;26.70;70.00;;;;;;4957472;28;20046;-60
2022/08/20 10:42:36;;;;;;;8.10;1.90;;;26.90;77.00;;;;;;4974883;28;20049;-61
2022/08/20 10:45:02;;;;;;;7.10;1.83;;;26.70;69.70;;;;;;4966687;28;20039;-61
2022/08/20 10:47:30;;;;;;;6.95;1.92;;;26.60;68.80;;;;;;4973442;28;20047;-61
2022/08/20 10:49:59;;;;;;;5.47;1.80;;;26.50;69.30;;;;;;4973473;28;20117;-61
2022/08/20 10:52:26;;;;;;;9.98;2.10;;;26.30;71.00;;;;;;4973303;28;20514;-61
2022/08/20 10:54:52;;;;;;;7.88;2.10;;;25.30;79.80;;;;;;4972866;28;20051;-61
2022/08/20 10:57:21;;;;;;;7.32;1.80;;;26.30;72.90;;;;;;4973119;28;20459;-61
2022/08/20 10:59:50;;;;;;;8.35;2.05;;;26.20;71.40;;;;;;4973672;28;20049;-61
2022/08/20 11:02:16;;;;;;;8.18;1.90;;;26.20;71.20;;;;;;4972694;28;20047;-62
2022/08/20 11:04:42;;;;;;;6.40;1.92;;;26.20;71.50;;;;;;4973810;28;20043;-61
2022/08/20 11:07:26;;;;;;;8.45;2.20;;;26.30;71.50;;;;;;4972763;28;20109;-61
2022/08/20 11:09:53;;;;;;;6.88;2.00;;;26.30;69.20;;;;;;4973718;28;20054;-61
2022/08/20 11:12:20;;;;;;;8.60;2.15;;;26.40;69.50;;;;;;4973312;28;20050;-61
2022/08/20 11:14:46;;;;;;;8.20;2.08;;;26.50;69.50;;;;;;4973541;28;20090;-61
2022/08/20 11:17:17;;;;;;;5.38;1.60;;;26.70;69.30;;;;;;4973116;28;20127;-61
2022/08/20 11:19:43;;;;;;;7.22;1.90;;;26.80;68.30;;;;;;4956351;28;20398;-61
2022/08/20 11:22:10;;;;;;;7.25;1.98;;;26.80;68.10;;;;;;4970583;28;20055;-61
2022/08/20 11:24:38;;;;;;;7.60;1.90;;;26.90;68.30;;;;;;4973588;28;20490;-61
2022/08/20 11:27:06;;;;;;;5.15;1.80;;;26.80;76.00;;;;;;4955742;28;20142;-61
2022/08/20 11:29:34;;;;;;;7.80;1.75;;;27.10;72.10;;;;;;4973419;28;20411;-61
2022/08/20 11:31:59;;;;;;;11.68;2.03;;;27.00;67.20;;;;;;4972463;28;20058;-62
2022/08/20 11:34:25;;;;;;;6.28;2.00;;;26.50;68.10;;;;;;4973356;28;20046;-61
2022/08/20 11:36:51;;;;;;;7.05;2.25;;;26.50;66.70;;;;;;4972914;28;20129;-61
2022/08/20 11:39:18;;;;;;;6.40;2.20;;;26.50;68.40;;;;;;4973210;28;20047;-61
2022/08/20 11:41:44;;;;;;;6.20;1.90;;;26.60;68.30;;;;;;4973088;28;20043;-63
2022/08/20 11:44:09;;;;;;;8.35;2.25;;;26.60;67.60;;;;;;4973439;28;20097;-64
2022/08/20 11:46:36;;;;;;;6.72;2.13;;;26.80;74.20;;;;;;4974266;28;20399;-63
2022/08/20 11:49:01;;;;;;;5.15;2.03;;;26.90;67.40;;;;;;4975511;28;20113;-62
2022/08/20 11:51:27;;;;;;;8.40;2.15;;;27.20;65.40;;;;;;4977948;28;20490;-62
2022/08/20 11:53:53;;;;;;;7.07;1.92;;;27.30;64.80;;;;;;4977853;28;20062;-62
2022/08/20 11:56:20;;;;;;;5.22;1.90;;;27.30;65.00;;;;;;4977890;28;20042;-62
2022/08/20 11:58:46;;;;;;;6.45;2.08;;;27.50;66.50;;;;;;4977768;28;20043;-62
2022/08/20 12:01:13;;;;;;;7.15;2.00;;;27.70;66.60;;;;;;4977376;28;20169;-62
2022/08/20 12:03:38;;;;;;;4.25;1.98;;;27.70;66.60;;;;;;4977861;28;20125;-62
2022/08/20 12:06:04;;;;;;;6.72;2.00;;;27.70;66.40;;;;;;4976638;28;20503;-62
2022/08/20 12:08:31;;;;;;;7.97;2.10;;;27.80;66.10;;;;;;4960400;28;20052;-62
2022/08/20 12:10:59;;;;;;;9.43;2.08;;;27.90;65.40;;;;;;4977689;28;20034;-62
2022/08/20 12:13:27;;;;;;;7.78;2.05;;;27.60;62.50;;;;;;4977345;28;20046;-62
2022/08/20 12:15:53;;;;;;;5.50;2.00;;;27.00;65.40;;;;;;4977266;28;20057;-62
2022/08/20 12:18:20;;;;;;;6.72;1.80;;;26.80;65.00;;;;;;4977617;28;20050;-62
2022/08/20 12:20:46;;;;;;;9.05;2.00;;;26.40;65.40;;;;;;4977313;28;20050;-62
2022/08/20 12:23:11;;;;;;;10.25;2.20;;;26.20;66.20;;;;;;4977198;28;20063;-62
2022/08/20 12:25:37;;;;;;;6.13;2.00;;;26.00;67.00;;;;;;4977109;28;20403;-62
2022/08/20 12:28:04;;;;;;;6.15;1.80;;;25.90;67.00;;;;;;4977683;28;20038;-62
2022/08/20 12:30:30;;;;;;;9.88;2.20;;;25.90;66.10;;;;;;4977271;28;20530;-62
2022/08/20 12:32:56;;;;;;;6.72;1.77;;;25.80;65.40;;;;;;4960034;28;20046;-62
2022/08/20 12:35:23;;;;;;;5.78;2.08;;;25.60;66.50;;;;;;4976926;28;20031;-59
2022/08/20 12:37:52;;;;;;;6.95;2.00;;;25.50;66.80;;;;;;4977263;28;20039;-59
2022/08/20 12:40:22;;;;;;;9.00;2.20;;;25.50;67.20;;;;;;4977064;28;20380;-59
2022/08/20 12:42:47;;;;;;;5.57;1.70;;;25.50;66.30;;;;;;4977323;28;20035;-59
2022/08/20 12:45:14;;;;;;;7.85;2.28;;;25.60;68.10;;;;;;4976997;28;20561;-59